Fremont, CA (94538)

3:20 PM PST on February 08, 2016 (GMT -0800)
morrison meadows | | Change Station
CLOSE
Current Station
Personal Weather Station
Location: Fremont, CA
Elevation: 33 ft
Nearby Weather Stations

Elev 33 ft 37.52 °N, 121.97 °W | Updated 6 minutes ago

Clear
Clear
80.4 °F
Feels Like 79 °F
N
2.2
Wind Variable Wind from ESE

Today
High -- | Low -- °F
--% Chance of Precip.
Yesterday
High -- | Low -- °F
Precip. -- in
Pressure 30.16 in
Visibility 10.0 miles
Clouds Clear
Heat Index 79 °F
Dew Point 45 °F
Humidity 29%
Rainfall 0.00 in
Snow Depth Not available.
7:05 AM 5:39 PM
New Moon, 0% visible
METAR KPAO 082252Z 00000KT 10SM SKC 25/08 A3016
Pressure 30.16 in
Visibility 10.0 miles
Clouds Clear
Heat Index 79 °F
Dew Point 45 °F
Humidity 29%
Rainfall 0.00 in
Snow Depth Not available.
7:05 AM 5:39 PM
New Moon, 0% visible
METAR KPAO 082252Z 00000KT 10SM SKC 25/08 A3016

10-Day Weather Forecast

Almanac

Astronomy

Feb. 08, 2016 Rise Set
Actual Time
Civil Twilight
Nautical Twilight
Astronomical Twilight
Moon
Length of Visible Light
Length of Day
Tomorrow will be .
, % of the Moon is Illuminated

Today's Extremes

State Highs State Lows

Community

WunderPhotos

Upload Photos

1,891,525 photos uploaded!

WunderBlog® & News

Nearby

Air Quality

  Air Quality AQ Index Pollutant
Not available.

Snow Depth

Station Depth Elevation

Earthquake Activity

City Distance Mag. Time & Date
Minimum magnitude displayed is 2.5.

Coastal Water Temperatures

Place Temperature

Stations

Nearby Weather Stations

Station Location Temp. Windchill Dew Point Humidity Wind Precip. Elev Updated Type
                   

Watches & Warnings

There are currently no watches in effect.